Time;durP1;ratioP1;P1;durP2;ratioP2;P2;SDS_P1;SDS_P2;PMS_P1;PMS_P2;Temp;Humidity;BMP_temperature;BMP_pressure;BME280_temperature;BME280_humidity;BME280_pressure;Samples;Min_cycle;Max_cycle;Signal;HPM_P1;HPM_P2
2022/11/09 00:01:03;;;;;;;112.53;36.03;;;6.70;99.90;;;;;;4212846;28;20093;-61
2022/11/09 00:03:05;;;;;;;156.00;41.53;;;6.70;99.90;;;;;;4213068;28;20426;-63
2022/11/09 00:05:06;;;;;;;115.87;39.80;;;6.70;99.90;;;;;;4212961;28;20028;-63
2022/11/09 00:07:08;;;;;;;99.53;37.80;;;6.70;99.90;;;;;;4210823;28;20061;-64
2022/11/09 00:09:09;;;;;;;109.00;37.87;;;6.80;99.90;;;;;;4196153;28;20097;-61
2022/11/09 00:11:10;;;;;;;105.27;38.70;;;6.90;99.90;;;;;;4195582;28;20440;-62
2022/11/09 00:13:11;;;;;;;169.50;45.17;;;7.00;99.90;;;;;;4178529;28;20053;-61
2022/11/09 00:15:13;;;;;;;205.73;40.43;;;7.00;99.90;;;;;;4195688;28;20028;-60
2022/11/09 00:17:14;;;;;;;123.80;37.37;;;7.00;99.90;;;;;;4196683;28;20083;-62
2022/11/09 00:19:15;;;;;;;165.77;39.83;;;7.00;99.90;;;;;;4195682;28;20040;-62
2022/11/09 00:21:19;;;;;;;108.30;36.50;;;7.00;99.90;;;;;;4196514;28;20086;-60
2022/11/09 00:23:20;;;;;;;92.23;34.87;;;7.00;99.90;;;;;;4199249;28;20153;-62
2022/11/09 00:25:21;;;;;;;146.10;37.00;;;7.10;99.90;;;;;;4196874;28;20094;-62
2022/11/09 00:27:22;;;;;;;137.47;34.43;;;7.10;99.90;;;;;;4205303;28;20561;-61
2022/11/09 00:29:23;;;;;;;111.23;33.83;;;7.10;99.90;;;;;;4213293;28;20031;-61
2022/11/09 00:31:24;;;;;;;109.63;35.00;;;7.10;99.90;;;;;;4211876;28;20037;-61
2022/11/09 00:33:26;;;;;;;181.03;39.83;;;7.10;99.90;;;;;;4212644;28;20129;-61
2022/11/09 00:35:27;;;;;;;127.70;34.67;;;7.00;99.90;;;;;;4212439;28;20012;-63
2022/11/09 00:37:29;;;;;;;143.20;36.30;;;7.00;99.90;;;;;;4212616;28;20085;-62
2022/11/09 00:39:30;;;;;;;137.57;33.37;;;6.90;99.90;;;;;;4212352;28;20032;-63
2022/11/09 00:41:31;;;;;;;116.00;34.17;;;6.90;99.90;;;;;;4212426;28;20024;-63
2022/11/09 00:43:33;;;;;;;141.33;34.67;;;6.90;99.90;;;;;;4202401;28;20048;-62
2022/11/09 00:45:35;;;;;;;128.10;32.67;;;6.90;99.90;;;;;;4196369;28;20020;-62
2022/11/09 00:47:36;;;;;;;237.70;37.73;;;6.90;99.90;;;;;;4195870;28;20527;-61
2022/11/09 00:49:37;;;;;;;115.53;31.37;;;6.80;99.90;;;;;;4194910;28;20110;-62
2022/11/09 00:51:38;;;;;;;107.13;32.73;;;6.80;99.90;;;;;;4195945;28;20036;-62
2022/11/09 00:53:39;;;;;;;136.30;32.40;;;6.80;99.90;;;;;;4194902;28;20378;-63
2022/11/09 00:55:40;;;;;;;138.77;31.70;;;6.80;99.90;;;;;;4207344;28;20044;-63
2022/11/09 00:57:41;;;;;;;126.03;31.27;;;6.70;99.90;;;;;;4211701;28;20089;-62
2022/11/09 00:59:43;;;;;;;130.30;32.87;;;6.70;99.90;;;;;;4213095;28;20081;-61
2022/11/09 01:01:44;;;;;;;133.47;31.70;;;6.70;99.90;;;;;;4211658;28;20020;-61
2022/11/09 01:03:45;;;;;;;155.07;33.43;;;6.70;99.90;;;;;;4212549;28;20427;-60
2022/11/09 01:05:47;;;;;;;167.27;32.43;;;6.70;99.90;;;;;;4211545;28;20040;-61
2022/11/09 01:07:49;;;;;;;146.27;30.67;;;6.70;99.90;;;;;;4211906;28;20121;-62
2022/11/09 01:09:50;;;;;;;93.47;29.67;;;6.70;99.90;;;;;;4212218;28;20028;-61
2022/11/09 01:11:51;;;;;;;70.37;30.03;;;6.70;99.90;;;;;;4210169;28;20032;-61
2022/11/09 01:13:53;;;;;;;181.67;34.60;;;6.70;99.90;;;;;;4198209;28;20098;-62
2022/11/09 01:15:54;;;;;;;214.23;34.80;;;6.80;99.90;;;;;;4209298;28;20067;-61
2022/11/09 01:17:56;;;;;;;105.30;27.57;;;6.90;99.90;;;;;;4197472;28;20438;-61
2022/11/09 01:19:57;;;;;;;137.40;29.00;;;6.80;99.90;;;;;;4194394;28;20538;-62
2022/11/09 01:21:58;;;;;;;181.93;34.70;;;6.90;99.90;;;;;;4195400;28;20508;-62
2022/11/09 01:24:00;;;;;;;125.27;31.73;;;6.90;99.90;;;;;;4196567;28;20082;-63
2022/11/09 01:26:04;;;;;;;168.90;33.27;;;6.80;99.90;;;;;;4210025;28;20085;-62
2022/11/09 01:28:06;;;;;;;111.13;26.97;;;6.80;99.90;;;;;;4211119;28;20058;-61
2022/11/09 01:30:08;;;;;;;103.30;27.47;;;6.80;99.90;;;;;;4212120;28;20427;-62
2022/11/09 01:32:09;;;;;;;111.37;29.03;;;6.80;99.90;;;;;;4211140;28;20500;-62
2022/11/09 01:34:10;;;;;;;61.10;25.03;;;6.80;99.90;;;;;;4211983;28;20039;-63
2022/11/09 01:36:17;;;;;;;94.20;27.10;;;6.90;99.90;;;;;;4211224;28;20016;-63
2022/11/09 01:38:18;;;;;;;88.60;28.33;;;6.90;99.90;;;;;;4212058;28;20024;-63
2022/11/09 01:40:19;;;;;;;155.67;32.40;;;6.90;99.90;;;;;;4211701;28;20081;-62
2022/11/09 01:42:23;;;;;;;107.87;29.57;;;7.00;99.90;;;;;;4210138;28;20075;-63
2022/11/09 01:44:26;;;;;;;122.73;28.10;;;6.90;99.90;;;;;;4206198;28;20383;-62
2022/11/09 01:46:41;;;;;;;174.53;30.57;;;7.00;99.90;;;;;;4193985;28;20066;-63
2022/11/09 01:48:45;;;;;;;103.90;27.23;;;6.90;99.90;;;;;;4203715;28;20044;-62
2022/11/09 01:51:04;;;;;;;97.33;25.53;;;6.90;99.90;;;;;;4195646;28;20411;-62
2022/11/09 01:53:14;;;;;;;105.20;28.80;;;6.90;99.90;;;;;;4194436;28;20159;-63
2022/11/09 01:55:18;;;;;;;94.33;28.63;;;6.90;99.90;;;;;;4194158;28;20040;-62
2022/11/09 01:57:24;;;;;;;140.30;30.70;;;6.90;99.90;;;;;;4194656;28;20504;-62
2022/11/09 01:59:30;;;;;;;80.20;26.07;;;6.90;99.90;;;;;;4194139;28;20040;-62
2022/11/09 02:01:32;;;;;;;106.83;23.93;;;6.80;99.90;;;;;;4194359;28;20044;-62
2022/11/09 02:03:39;;;;;;;94.03;23.23;;;6.80;99.90;;;;;;4193877;28;20044;-62
2022/11/09 02:05:41;;;;;;;130.03;25.87;;;6.70;99.90;;;;;;4194452;28;20036;-62
2022/11/09 02:07:43;;;;;;;62.33;20.60;;;6.60;99.90;;;;;;4193992;28;20435;-61
2022/11/09 02:10:00;;;;;;;137.53;26.20;;;6.60;99.90;;;;;;4195028;28;20435;-61
2022/11/09 02:12:02;;;;;;;92.00;22.80;;;6.60;99.90;;;;;;4193855;28;20066;-61
2022/11/09 02:14:04;;;;;;;153.27;28.23;;;6.60;99.90;;;;;;4195328;28;20040;-61
2022/11/09 02:16:07;;;;;;;74.60;21.37;;;6.50;99.90;;;;;;4199690;28;20442;-61
2022/11/09 02:18:08;;;;;;;79.90;24.13;;;6.50;99.90;;;;;;4211781;28;20035;-62
2022/11/09 02:20:14;;;;;;;116.30;26.93;;;6.50;99.90;;;;;;4209887;28;20070;-62
2022/11/09 02:22:15;;;;;;;76.93;24.53;;;6.50;99.90;;;;;;4211118;28;20040;-63
2022/11/09 02:24:17;;;;;;;100.13;24.83;;;6.50;99.90;;;;;;4210529;28;20573;-63
2022/11/09 02:26:30;;;;;;;99.90;25.07;;;6.40;99.90;;;;;;4206053;28;20450;-63
2022/11/09 02:28:31;;;;;;;78.70;23.60;;;6.40;99.90;;;;;;4210043;28;20465;-63
2022/11/09 02:30:34;;;;;;;66.90;23.23;;;6.40;99.90;;;;;;4211951;28;20452;-63
2022/11/09 02:32:35;;;;;;;75.57;23.47;;;6.40;99.90;;;;;;4210247;28;20028;-63
2022/11/09 02:34:36;;;;;;;110.50;24.53;;;6.40;99.90;;;;;;4211491;28;20020;-62
2022/11/09 02:36:38;;;;;;;139.23;25.83;;;6.40;99.90;;;;;;4632786;23;20130;-62
2022/11/09 02:38:39;;;;;;;92.70;23.20;;;6.40;99.90;;;;;;4207641;28;20102;-63
2022/11/09 02:40:45;;;;;;;161.13;27.23;;;6.30;99.90;;;;;;4200910;28;20097;-62
2022/11/09 02:42:46;;;;;;;59.47;21.10;;;6.30;99.90;;;;;;4194389;28;20033;-62
2022/11/09 02:44:58;;;;;;;103.97;24.03;;;6.30;99.90;;;;;;4206622;28;20081;-63
2022/11/09 02:46:59;;;;;;;52.80;21.00;;;6.40;99.90;;;;;;4210822;28;20057;-63
2022/11/09 02:49:01;;;;;;;77.13;23.47;;;6.30;99.90;;;;;;4193555;28;20028;-62
2022/11/09 02:51:02;;;;;;;56.60;20.03;;;6.40;99.90;;;;;;4194743;28;20033;-63
2022/11/09 02:53:03;;;;;;;66.27;22.20;;;6.40;99.90;;;;;;4192688;28;20032;-64
2022/11/09 02:55:05;;;;;;;95.50;25.80;;;6.50;99.90;;;;;;4194249;28;20042;-63
2022/11/09 02:57:06;;;;;;;62.73;21.03;;;6.50;99.90;;;;;;4192597;28;20520;-61
2022/11/09 02:59:07;;;;;;;61.13;24.13;;;6.50;99.90;;;;;;4194664;28;20075;-62
2022/11/09 03:01:08;;;;;;;107.27;24.50;;;6.50;99.90;;;;;;4202113;28;20450;-62
2022/11/09 03:03:10;;;;;;;53.20;19.87;;;6.60;99.90;;;;;;4203194;28;20033;-62
2022/11/09 03:05:11;;;;;;;79.70;19.17;;;6.60;99.90;;;;;;4192662;28;20079;-62
2022/11/09 03:07:12;;;;;;;118.30;21.23;;;6.60;99.90;;;;;;4194069;28;20041;-62
2022/11/09 03:09:13;;;;;;;60.83;19.13;;;6.60;99.90;;;;;;4197306;28;20041;-63
2022/11/09 03:11:14;;;;;;;74.03;19.23;;;6.50;99.90;;;;;;4197425;28;20029;-63
2022/11/09 03:13:15;;;;;;;92.23;20.77;;;6.50;99.90;;;;;;4197325;28;20040;-63
2022/11/09 03:15:16;;;;;;;81.50;20.57;;;6.40;99.90;;;;;;4196993;28;20029;-64
2022/11/09 03:17:18;;;;;;;76.13;20.67;;;6.40;99.90;;;;;;4197575;28;20036;-63
2022/11/09 03:19:19;;;;;;;80.43;21.17;;;6.40;99.90;;;;;;4196639;28;20054;-63
2022/11/09 03:21:21;;;;;;;62.30;18.80;;;6.30;99.90;;;;;;4197678;28;20036;-63
2022/11/09 03:23:22;;;;;;;63.80;20.33;;;6.30;99.90;;;;;;4195549;28;20037;-64
2022/11/09 03:25:23;;;;;;;61.83;22.40;;;6.30;99.90;;;;;;4199958;28;20036;-63
2022/11/09 03:27:24;;;;;;;83.83;22.63;;;6.20;99.90;;;;;;4206191;28;20040;-63
2022/11/09 03:29:25;;;;;;;215.33;26.60;;;6.20;99.90;;;;;;4213828;28;20035;-63
2022/11/09 03:31:26;;;;;;;100.10;24.87;;;6.20;99.90;;;;;;4213047;28;20028;-63
2022/11/09 03:33:27;;;;;;;110.37;25.53;;;6.20;99.90;;;;;;4210376;28;20086;-63
2022/11/09 03:35:29;;;;;;;62.30;21.70;;;6.20;99.90;;;;;;4196421;28;20032;-64
2022/11/09 03:37:30;;;;;;;75.37;21.93;;;6.20;99.90;;;;;;4196451;28;20060;-64
2022/11/09 03:39:32;;;;;;;74.57;22.80;;;6.20;99.90;;;;;;4199146;28;20101;-63
2022/11/09 03:41:34;;;;;;;65.07;23.40;;;6.20;99.90;;;;;;4198379;28;20062;-63
2022/11/09 03:43:35;;;;;;;68.57;22.17;;;6.20;99.90;;;;;;4213545;28;20414;-63
2022/11/09 03:45:36;;;;;;;159.13;27.07;;;6.10;99.90;;;;;;4210889;28;20101;-64
2022/11/09 03:47:45;;;;;;;89.83;21.53;;;6.10;99.90;;;;;;4213596;28;20089;-63
2022/11/09 03:49:46;;;;;;;69.10;19.97;;;6.00;99.90;;;;;;4213064;28;20421;-63
2022/11/09 03:51:47;;;;;;;90.17;21.77;;;6.00;99.90;;;;;;4213754;28;20028;-64
2022/11/09 03:53:48;;;;;;;65.47;20.67;;;5.90;99.90;;;;;;4211570;28;20800;-63
2022/11/09 03:55:49;;;;;;;153.40;25.30;;;5.90;99.90;;;;;;4212584;28;20036;-64
2022/11/09 03:57:51;;;;;;;81.00;21.77;;;5.90;99.90;;;;;;4211794;28;20032;-63
2022/11/09 03:59:52;;;;;;;107.93;22.40;;;5.90;99.90;;;;;;4209987;28;20113;-63
2022/11/09 04:01:53;;;;;;;103.67;22.30;;;5.90;99.90;;;;;;4208353;28;20104;-64
2022/11/09 04:03:54;;;;;;;91.60;21.60;;;5.80;99.90;;;;;;4213557;28;20027;-63
2022/11/09 04:05:57;;;;;;;161.73;24.93;;;5.80;99.90;;;;;;4212599;28;20024;-63
2022/11/09 04:07:58;;;;;;;67.07;19.27;;;5.80;99.90;;;;;;4213056;28;20066;-63
2022/11/09 04:10:00;;;;;;;78.67;20.17;;;5.80;99.90;;;;;;4212311;28;20101;-63
2022/11/09 04:12:01;;;;;;;79.93;22.00;;;5.80;99.90;;;;;;4212470;28;20144;-63
2022/11/09 04:14:02;;;;;;;71.03;20.23;;;5.80;99.90;;;;;;4212744;28;20050;-63
2022/11/09 04:16:03;;;;;;;69.13;21.33;;;5.80;99.90;;;;;;4212385;28;20032;-63
2022/11/09 04:18:04;;;;;;;65.97;22.27;;;5.80;99.90;;;;;;4209164;28;20070;-63
2022/11/09 04:20:07;;;;;;;59.37;20.83;;;5.80;99.90;;;;;;4212179;28;20549;-64
2022/11/09 04:22:09;;;;;;;73.47;22.67;;;5.90;99.90;;;;;;4213133;28;20078;-63
2022/11/09 04:24:10;;;;;;;62.57;21.50;;;5.90;99.90;;;;;;4211611;28;20036;-63
2022/11/09 04:26:11;;;;;;;136.67;24.70;;;5.90;99.90;;;;;;4213420;28;20035;-63
2022/11/09 04:28:12;;;;;;;82.33;21.70;;;5.90;99.90;;;;;;4206956;28;20044;-63
2022/11/09 04:30:13;;;;;;;207.67;29.77;;;5.90;99.90;;;;;;4212667;28;20101;-63
2022/11/09 04:32:14;;;;;;;121.07;23.83;;;5.90;99.90;;;;;;4212270;28;20097;-63
2022/11/09 04:34:16;;;;;;;75.17;22.40;;;5.90;99.90;;;;;;4213373;28;20081;-64
2022/11/09 04:36:17;;;;;;;74.33;21.77;;;5.90;99.90;;;;;;4211650;28;20044;-64
2022/11/09 04:38:19;;;;;;;69.73;22.63;;;5.90;99.90;;;;;;4212362;28;20055;-64
2022/11/09 04:40:20;;;;;;;70.67;22.03;;;6.00;99.90;;;;;;4211255;28;20142;-63
2022/11/09 04:42:21;;;;;;;267.93;35.03;;;6.10;99.90;;;;;;4211805;28;20529;-64
2022/11/09 04:44:22;;;;;;;61.33;20.77;;;6.10;99.90;;;;;;4204699;28;20086;-64
2022/11/09 04:46:24;;;;;;;141.20;26.00;;;6.00;99.90;;;;;;4196058;28;20102;-64
2022/11/09 04:48:25;;;;;;;50.67;18.33;;;6.00;99.90;;;;;;4195532;28;20050;-63
2022/11/09 04:50:27;;;;;;;188.03;29.83;;;6.00;99.90;;;;;;4195430;28;20028;-63
2022/11/09 04:52:28;;;;;;;107.17;24.87;;;6.00;99.90;;;;;;4195688;28;20032;-62
2022/11/09 04:54:29;;;;;;;123.93;23.30;;;6.00;99.90;;;;;;4195015;28;20036;-63
2022/11/09 04:56:31;;;;;;;87.20;21.63;;;6.00;99.90;;;;;;4196062;28;20074;-63
2022/11/09 04:58:32;;;;;;;76.90;22.17;;;5.90;99.90;;;;;;4193922;28;20475;-63
2022/11/09 05:00:34;;;;;;;81.47;22.63;;;6.00;99.90;;;;;;4194768;28;20102;-63
2022/11/09 05:02:35;;;;;;;129.17;22.40;;;6.00;99.90;;;;;;4195485;28;20074;-64
2022/11/09 05:04:36;;;;;;;81.20;20.60;;;5.90;99.90;;;;;;4199000;28;20083;-62
2022/11/09 05:06:37;;;;;;;108.30;23.37;;;5.90;99.90;;;;;;4193665;28;20045;-63
2022/11/09 05:08:38;;;;;;;116.00;24.00;;;5.90;99.90;;;;;;4196442;28;20036;-62
2022/11/09 05:10:39;;;;;;;145.73;26.33;;;5.90;99.90;;;;;;4194684;28;20097;-63
2022/11/09 05:12:42;;;;;;;127.50;25.30;;;5.90;99.90;;;;;;4195747;28;20028;-62
2022/11/09 05:14:43;;;;;;;149.77;27.20;;;5.90;99.90;;;;;;4194341;28;20425;-63
2022/11/09 05:16:44;;;;;;;100.10;25.30;;;6.00;99.90;;;;;;4207782;28;20085;-63
2022/11/09 05:18:46;;;;;;;97.93;23.63;;;6.00;99.90;;;;;;4211609;28;20047;-63
2022/11/09 05:20:47;;;;;;;174.83;29.10;;;6.00;99.90;;;;;;4210002;28;20039;-63
2022/11/09 05:25:08;;;;;;;103.23;23.40;;;6.00;99.90;;;;;;4211754;28;20028;-64
2022/11/09 05:27:10;;;;;;;95.07;23.90;;;6.00;99.90;;;;;;4193916;28;20492;-62
2022/11/09 05:29:12;;;;;;;93.30;26.43;;;6.00;99.90;;;;;;4195227;28;20441;-64
2022/11/09 05:31:13;;;;;;;117.37;26.43;;;6.00;99.90;;;;;;4195734;28;20066;-64
2022/11/09 05:33:15;;;;;;;119.10;26.90;;;6.00;99.90;;;;;;4207561;28;20101;-65
2022/11/09 05:35:17;;;;;;;338.77;42.50;;;6.00;99.90;;;;;;4202405;28;20020;-64
2022/11/09 05:37:20;;;;;;;149.50;30.30;;;6.10;99.90;;;;;;4200594;28;20044;-65
2022/11/09 05:39:21;;;;;;;328.97;41.87;;;6.10;99.90;;;;;;4195511;28;20130;-64
2022/11/09 05:41:22;;;;;;;194.87;31.63;;;6.10;99.90;;;;;;4193859;28;20468;-64
2022/11/09 05:43:23;;;;;;;141.10;29.80;;;6.10;99.90;;;;;;4181570;28;20087;-63
2022/11/09 05:45:25;;;;;;;90.80;25.97;;;6.10;99.90;;;;;;4185932;28;20037;-63
2022/11/09 05:47:26;;;;;;;155.27;29.97;;;6.20;99.90;;;;;;4195010;28;20075;-64
2022/11/09 05:49:27;;;;;;;104.20;27.07;;;6.20;99.90;;;;;;4193786;28;20085;-63
2022/11/09 05:51:28;;;;;;;111.13;28.80;;;6.20;99.90;;;;;;4194367;28;20668;-64
2022/11/09 05:53:30;;;;;;;135.23;31.63;;;6.20;99.90;;;;;;4194367;28;20044;-64
2022/11/09 05:55:31;;;;;;;116.40;28.17;;;6.20;99.90;;;;;;4194064;28;20427;-63
2022/11/09 05:57:32;;;;;;;141.33;29.70;;;6.20;99.90;;;;;;4194724;28;20455;-64
2022/11/09 05:59:34;;;;;;;126.60;29.00;;;6.20;99.90;;;;;;4194203;28;20024;-63
2022/11/09 06:01:35;;;;;;;131.67;30.20;;;6.20;99.90;;;;;;4205185;28;20036;-64
2022/11/09 06:03:36;;;;;;;95.90;27.93;;;6.20;99.90;;;;;;4203888;28;20029;-64
2022/11/09 06:05:39;;;;;;;117.60;28.60;;;6.20;99.90;;;;;;4206876;28;20037;-64
2022/11/09 06:07:41;;;;;;;120.20;31.50;;;6.30;99.90;;;;;;4203834;28;20090;-65
2022/11/09 06:09:42;;;;;;;123.20;28.97;;;6.30;99.90;;;;;;4193018;28;20117;-63
2022/11/09 06:11:44;;;;;;;94.67;28.23;;;6.30;99.90;;;;;;4192018;28;20032;-64
2022/11/09 06:13:45;;;;;;;97.80;25.83;;;6.30;99.90;;;;;;4193807;28;20029;-64
2022/11/09 06:15:52;;;;;;;136.13;29.33;;;6.40;99.90;;;;;;4192927;28;20032;-63
2022/11/09 06:17:54;;;;;;;110.70;27.17;;;6.30;99.90;;;;;;4194150;28;20170;-63
2022/11/09 06:19:55;;;;;;;84.77;27.27;;;6.40;99.90;;;;;;4192537;28;20025;-63
2022/11/09 06:21:57;;;;;;;136.80;31.87;;;6.40;99.90;;;;;;4193617;28;20087;-63
2022/11/09 06:23:58;;;;;;;107.00;30.23;;;6.50;99.90;;;;;;4192969;28;20557;-63
2022/11/09 06:26:08;;;;;;;89.30;26.57;;;6.50;99.90;;;;;;4192473;28;20040;-64
2022/11/09 06:28:09;;;;;;;83.10;26.42;;;6.60;99.90;;;;;;4193277;28;20109;-63
2022/11/09 06:30:11;;;;;;;115.53;29.50;;;6.60;99.90;;;;;;4193650;28;20063;-63
2022/11/09 06:32:12;;;;;;;106.60;27.73;;;6.70;99.90;;;;;;4193711;28;20028;-63
2022/11/09 06:34:14;;;;;;;69.50;24.07;;;6.70;99.90;;;;;;4193483;28;20029;-63
2022/11/09 06:36:15;;;;;;;48.00;19.13;;;6.70;99.90;;;;;;4194205;28;20115;-63
2022/11/09 06:38:16;;;;;;;58.90;23.07;;;6.70;99.90;;;;;;4192736;28;20052;-63
2022/11/09 06:40:17;;;;;;;53.97;20.40;;;6.80;99.90;;;;;;4194449;28;20537;-64
2022/11/09 06:42:18;;;;;;;66.93;21.60;;;6.80;99.90;;;;;;4192260;28;20549;-63
2022/11/09 06:44:19;;;;;;;62.10;21.87;;;6.80;99.90;;;;;;4194397;28;20028;-63
2022/11/09 06:46:20;;;;;;;47.67;18.60;;;6.80;99.90;;;;;;4192958;28;20185;-63
2022/11/09 06:48:23;;;;;;;49.13;18.83;;;6.90;99.90;;;;;;4194355;28;20037;-63
2022/11/09 06:50:25;;;;;;;45.43;17.40;;;6.90;99.90;;;;;;4193050;28;20033;-63
2022/11/09 06:52:26;;;;;;;42.67;18.63;;;6.90;99.90;;;;;;4194268;28;20029;-63
2022/11/09 06:54:27;;;;;;;50.53;18.77;;;6.90;99.90;;;;;;4193268;28;20028;-63
2022/11/09 06:56:28;;;;;;;51.90;19.33;;;7.00;99.90;;;;;;4193574;28;20042;-63
2022/11/09 06:58:30;;;;;;;57.33;19.43;;;7.00;99.90;;;;;;4174957;28;20030;-61
2022/11/09 07:00:31;;;;;;;52.77;21.20;;;7.00;99.90;;;;;;4192857;28;20041;-63
2022/11/09 07:02:33;;;;;;;62.53;21.80;;;7.00;99.90;;;;;;4193916;28;20028;-63
2022/11/09 07:04:34;;;;;;;61.83;19.33;;;7.00;99.90;;;;;;4193566;28;20028;-63
2022/11/09 07:06:39;;;;;;;49.20;20.07;;;7.00;99.90;;;;;;4193866;28;20071;-63
2022/11/09 07:08:40;;;;;;;59.53;20.93;;;6.90;99.90;;;;;;4192321;28;20071;-63
2022/11/09 07:10:42;;;;;;;51.23;20.40;;;6.90;99.90;;;;;;4194228;28;20024;-62
2022/11/09 07:12:44;;;;;;;55.67;21.07;;;7.00;99.90;;;;;;4192453;28;20037;-63
2022/11/09 07:14:45;;;;;;;67.10;22.67;;;7.00;99.90;;;;;;4194247;28;20469;-63
2022/11/09 07:16:46;;;;;;;55.67;21.70;;;7.10;99.90;;;;;;4193163;28;20056;-63
2022/11/09 07:18:47;;;;;;;54.97;20.67;;;7.10;99.90;;;;;;4193197;28;20361;-62
2022/11/09 07:20:48;;;;;;;51.03;21.00;;;7.10;99.90;;;;;;4175182;28;20111;-62
2022/11/09 07:22:49;;;;;;;65.67;23.57;;;7.20;99.90;;;;;;4193960;28;20484;-63
2022/11/09 07:24:51;;;;;;;59.53;21.47;;;7.20;99.90;;;;;;4192309;28;20083;-63
2022/11/09 07:26:52;;;;;;;65.90;24.47;;;7.30;99.90;;;;;;4193258;28;20082;-63
2022/11/09 07:28:53;;;;;;;67.10;24.57;;;7.30;99.90;;;;;;4192887;28;20036;-62
2022/11/09 07:30:56;;;;;;;78.57;25.23;;;7.40;99.90;;;;;;4193500;28;20098;-64
2022/11/09 07:32:58;;;;;;;90.00;34.97;;;7.30;99.90;;;;;;4193226;28;20503;-63
2022/11/09 07:35:00;;;;;;;94.17;35.57;;;7.30;99.90;;;;;;4175499;28;20765;-62
2022/11/09 07:37:01;;;;;;;99.73;36.33;;;7.40;99.90;;;;;;4193015;28;20052;-63
2022/11/09 07:39:02;;;;;;;129.67;45.50;;;7.40;99.90;;;;;;4192621;28;20419;-63
2022/11/09 07:41:04;;;;;;;108.83;39.93;;;7.40;99.90;;;;;;4192648;28;20036;-62
2022/11/09 07:43:05;;;;;;;117.33;41.47;;;7.50;99.90;;;;;;4192465;28;20430;-63
2022/11/09 07:45:07;;;;;;;110.20;41.00;;;7.50;99.90;;;;;;4193828;28;20419;-62
2022/11/09 07:47:09;;;;;;;79.13;31.73;;;7.50;99.90;;;;;;4191758;28;20447;-63
2022/11/09 07:49:12;;;;;;;82.03;30.97;;;7.60;99.90;;;;;;4193822;28;20480;-62
2022/11/09 07:51:13;;;;;;;100.97;36.60;;;7.60;99.90;;;;;;4192617;28;20427;-62
2022/11/09 07:53:15;;;;;;;107.87;38.70;;;7.60;99.90;;;;;;4194308;28;20078;-62
2022/11/09 07:55:16;;;;;;;100.80;39.60;;;7.60;99.90;;;;;;4195541;28;20369;-62
2022/11/09 07:57:18;;;;;;;87.07;36.10;;;7.60;99.90;;;;;;4196301;28;20037;-63
2022/11/09 07:59:19;;;;;;;104.57;36.17;;;7.60;99.90;;;;;;4194958;28;20036;-62
2022/11/09 08:01:21;;;;;;;118.93;39.10;;;7.60;99.90;;;;;;4195906;28;20442;-62
2022/11/09 08:03:23;;;;;;;105.73;40.60;;;7.60;99.90;;;;;;4195693;28;20028;-63
2022/11/09 08:05:25;;;;;;;111.90;42.97;;;7.60;99.90;;;;;;4195993;28;20538;-63
2022/11/09 08:07:26;;;;;;;114.10;44.87;;;7.60;99.90;;;;;;4195426;28;20486;-63
2022/11/09 08:09:27;;;;;;;129.53;58.03;;;7.70;99.90;;;;;;4195551;28;20488;-62
2022/11/09 08:11:28;;;;;;;164.80;74.53;;;7.80;99.90;;;;;;4195539;28;20058;-62
2022/11/09 08:13:30;;;;;;;107.50;44.57;;;7.80;99.90;;;;;;4195389;28;20055;-63
2022/11/09 08:15:32;;;;;;;114.07;50.53;;;7.80;99.90;;;;;;4196539;28;20105;-62
2022/11/09 08:17:33;;;;;;;93.30;39.00;;;7.80;99.90;;;;;;4195376;28;20100;-62
2022/11/09 08:19:34;;;;;;;69.93;30.77;;;7.80;99.90;;;;;;4196429;28;20028;-64
2022/11/09 08:21:36;;;;;;;63.37;24.37;;;7.80;99.90;;;;;;4194736;28;20032;-63
2022/11/09 08:23:38;;;;;;;65.90;27.53;;;7.80;99.90;;;;;;4195514;28;20036;-63
2022/11/09 08:25:40;;;;;;;49.27;19.67;;;7.80;99.90;;;;;;4177058;28;20091;-63
2022/11/09 08:27:41;;;;;;;47.30;20.13;;;7.80;99.90;;;;;;4196507;28;20020;-63
2022/11/09 08:29:42;;;;;;;46.67;20.43;;;7.80;99.90;;;;;;4194943;28;20032;-63
2022/11/09 08:31:43;;;;;;;51.43;21.20;;;7.90;99.90;;;;;;4195153;28;20036;-63
2022/11/09 08:33:44;;;;;;;48.37;20.17;;;7.90;99.90;;;;;;4194749;28;20036;-63
2022/11/09 08:35:45;;;;;;;46.33;18.40;;;7.90;99.90;;;;;;4195161;28;20435;-63
2022/11/09 08:37:49;;;;;;;72.87;18.87;;;7.80;99.90;;;;;;4195162;28;20040;-63
2022/11/09 08:39:50;;;;;;;41.30;18.47;;;7.80;99.90;;;;;;4195579;28;20422;-63
2022/11/09 08:41:51;;;;;;;53.50;17.83;;;7.80;99.90;;;;;;4195109;28;20086;-63
2022/11/09 08:43:52;;;;;;;44.70;17.23;;;7.80;99.90;;;;;;4195057;28;20021;-63
2022/11/09 08:45:54;;;;;;;42.63;19.50;;;7.80;99.90;;;;;;4195255;28;20442;-63
2022/11/09 08:47:58;;;;;;;52.87;19.80;;;7.80;99.90;;;;;;4194209;28;20124;-63
2022/11/09 08:50:03;;;;;;;55.93;19.77;;;7.70;99.90;;;;;;4194967;28;20060;-63
2022/11/09 08:52:04;;;;;;;41.17;18.37;;;7.70;99.90;;;;;;4194778;28;20550;-63
2022/11/09 08:54:05;;;;;;;48.57;19.17;;;7.80;99.90;;;;;;4196043;28;20079;-63
2022/11/09 08:56:07;;;;;;;52.20;19.93;;;7.80;99.90;;;;;;4194715;28;20443;-63
2022/11/09 08:58:09;;;;;;;41.60;19.43;;;7.80;99.90;;;;;;4195901;28;20415;-63
2022/11/09 09:00:11;;;;;;;44.10;19.17;;;7.70;99.90;;;;;;4194725;28;20086;-63
2022/11/09 09:02:13;;;;;;;47.97;19.47;;;7.80;99.90;;;;;;4195915;28;20024;-63
2022/11/09 09:04:14;;;;;;;51.33;23.07;;;7.80;99.90;;;;;;4193734;28;20033;-62
2022/11/09 09:06:15;;;;;;;47.53;19.77;;;7.80;99.90;;;;;;4195639;28;20044;-63
2022/11/09 09:08:20;;;;;;;47.90;20.03;;;7.80;99.90;;;;;;4194641;28;20549;-63
2022/11/09 09:10:21;;;;;;;47.50;21.20;;;7.80;99.90;;;;;;4194544;28;20118;-63
2022/11/09 09:12:22;;;;;;;47.47;18.47;;;7.90;99.90;;;;;;4194946;28;20074;-62
2022/11/09 09:14:24;;;;;;;58.87;19.77;;;7.90;99.90;;;;;;4175972;28;20029;-62
2022/11/09 09:16:25;;;;;;;43.27;17.70;;;7.90;99.90;;;;;;4194498;28;20113;-62
2022/11/09 09:18:26;;;;;;;47.63;19.50;;;7.90;99.90;;;;;;4194127;28;20082;-62
2022/11/09 09:20:27;;;;;;;45.37;18.63;;;7.90;99.90;;;;;;4195182;28;20024;-63
2022/11/09 09:22:28;;;;;;;70.03;20.83;;;7.80;99.90;;;;;;4193862;28;20083;-64
2022/11/09 09:24:30;;;;;;;46.47;19.53;;;7.80;99.90;;;;;;4195031;28;20042;-62
2022/11/09 09:26:31;;;;;;;60.67;20.17;;;7.80;99.90;;;;;;4193407;28;20079;-62
2022/11/09 09:28:32;;;;;;;54.77;18.40;;;7.70;99.90;;;;;;4194599;28;20106;-62
2022/11/09 09:30:34;;;;;;;48.53;18.77;;;7.60;99.90;;;;;;4193642;28;20032;-63
2022/11/09 09:32:35;;;;;;;53.77;20.10;;;7.60;99.90;;;;;;4194608;28;20040;-62
2022/11/09 09:34:37;;;;;;;58.20;25.13;;;7.70;99.90;;;;;;4193689;28;20036;-62
2022/11/09 09:36:38;;;;;;;45.60;20.43;;;7.80;99.90;;;;;;4193233;28;20040;-63
2022/11/09 09:38:39;;;;;;;56.90;25.47;;;7.70;99.90;;;;;;4193806;28;20071;-64
2022/11/09 09:41:01;;;;;;;52.60;21.10;;;7.80;99.90;;;;;;4194639;28;20040;-62
2022/11/09 09:43:02;;;;;;;47.57;20.33;;;7.80;99.90;;;;;;4192635;28;20090;-63
2022/11/09 09:45:16;;;;;;;50.13;20.70;;;7.80;99.90;;;;;;4193543;28;20090;-63
2022/11/09 09:47:36;;;;;;;47.40;21.10;;;7.70;99.90;;;;;;4193884;28;20555;-63
2022/11/09 09:49:43;;;;;;;44.40;20.17;;;7.80;99.90;;;;;;4194785;28;20808;-64
2022/11/09 09:51:48;;;;;;;67.60;20.23;;;7.90;99.90;;;;;;4193733;28;20094;-63
2022/11/09 09:53:56;;;;;;;64.53;19.07;;;7.90;99.90;;;;;;4194660;28;20455;-63
2022/11/09 09:56:23;;;;;;;62.80;20.47;;;7.90;99.90;;;;;;4193897;28;20025;-63
2022/11/09 09:58:25;;;;;;;51.87;18.47;;;7.90;99.90;;;;;;4191141;28;20044;-63
2022/11/09 10:00:27;;;;;;;56.90;20.83;;;8.00;99.90;;;;;;4193689;28;20134;-63
2022/11/09 10:02:33;;;;;;;56.17;19.63;;;8.00;99.90;;;;;;4194619;28;20032;-64
2022/11/09 10:04:38;;;;;;;50.53;20.17;;;8.00;99.90;;;;;;4193862;28;20432;-63
2022/11/09 10:07:02;;;;;;;51.57;19.60;;;8.00;99.90;;;;;;4194265;28;20025;-63
2022/11/09 10:09:12;;;;;;;48.93;19.60;;;8.00;99.90;;;;;;4174959;28;20048;-62
2022/11/09 10:11:48;;;;;;;42.03;18.35;;;7.90;99.90;;;;;;4194786;28;20381;-63
2022/11/09 10:14:02;;;;;;;45.03;19.13;;;8.00;99.90;;;;;;4167780;28;20093;-63
2022/11/09 10:16:22;;;;;;;45.50;18.97;;;8.00;99.90;;;;;;4194255;28;20070;-63
2022/11/09 10:18:26;;;;;;;49.13;19.13;;;8.10;99.90;;;;;;4193381;28;20017;-63
2022/11/09 10:20:38;;;;;;;51.57;19.90;;;8.10;99.90;;;;;;4176262;28;20758;-63
2022/11/09 10:23:06;;;;;;;53.93;18.93;;;8.10;99.90;;;;;;4193253;28;20021;-63
2022/11/09 10:25:20;;;;;;;53.70;21.00;;;8.00;99.90;;;;;;4193893;28;20484;-63
2022/11/09 10:27:42;;;;;;;56.17;21.47;;;8.00;99.90;;;;;;4193382;28;20460;-63
2022/11/09 10:29:47;;;;;;;52.47;18.73;;;8.00;99.90;;;;;;4193555;28;20106;-63